createdAt,value
2023-05-12T00:02:44.752Z,12.54
2023-05-12T00:05:30.204Z,12.59
2023-05-12T00:08:14.913Z,12.53
2023-05-12T00:11:01.382Z,12.49
2023-05-12T00:13:46.563Z,12.64
2023-05-12T00:16:31.520Z,12.52
2023-05-12T00:19:17.030Z,12.61
2023-05-12T00:22:02.752Z,12.57
2023-05-12T00:24:47.524Z,12.63
2023-05-12T00:27:32.922Z,12.72
2023-05-12T00:30:18.307Z,12.53
2023-05-12T00:33:03.564Z,12.60
2023-05-12T00:35:48.708Z,12.68
2023-05-12T00:38:37.287Z,12.57
2023-05-12T00:41:22.584Z,12.59
2023-05-12T00:44:07.314Z,12.64
2023-05-12T00:46:52.657Z,12.66
2023-05-12T00:49:42.372Z,12.77
2023-05-12T00:52:27.644Z,12.81
2023-05-12T00:55:12.630Z,12.77
2023-05-12T00:57:57.462Z,12.80
2023-05-12T01:00:42.641Z,12.86
2023-05-12T01:03:27.872Z,12.86
2023-05-12T01:06:20.691Z,12.65
2023-05-12T01:09:05.896Z,12.70
2023-05-12T01:11:51.182Z,12.57
2023-05-12T01:14:36.259Z,12.61
2023-05-12T01:17:32.248Z,12.71
2023-05-12T01:20:20.676Z,12.64
2023-05-12T01:23:05.964Z,12.62
2023-05-12T01:25:52.446Z,12.50
2023-05-12T01:28:38.948Z,12.50
2023-05-12T01:31:24.390Z,12.57
2023-05-12T01:34:08.879Z,12.57
2023-05-12T01:36:53.740Z,12.55
2023-05-12T01:39:38.820Z,12.60
2023-05-12T01:42:23.916Z,12.60
2023-05-12T01:45:09.556Z,12.54
2023-05-12T01:47:54.412Z,12.60
2023-05-12T01:50:39.227Z,12.63
2023-05-12T01:53:24.056Z,12.60
2023-05-12T01:56:09.034Z,12.55
2023-05-12T01:58:54.086Z,12.67
2023-05-12T02:01:39.270Z,12.61
2023-05-12T02:04:24.138Z,12.62
2023-05-12T02:07:09.001Z,12.63
2023-05-12T02:09:53.951Z,12.65
2023-05-12T02:12:39.097Z,12.70
2023-05-12T02:15:24.473Z,12.67
2023-05-12T02:18:09.455Z,12.63
2023-05-12T02:20:54.938Z,12.59
2023-05-12T02:23:39.744Z,12.59
2023-05-12T02:26:24.856Z,12.60
2023-05-12T02:29:10.785Z,12.58
2023-05-12T02:31:55.988Z,12.57
2023-05-12T02:34:41.364Z,12.52
2023-05-12T02:37:26.335Z,12.52
2023-05-12T02:40:11.560Z,12.64
2023-05-12T02:42:56.634Z,12.60
2023-05-12T02:45:41.921Z,12.63
2023-05-12T02:48:26.707Z,12.60
2023-05-12T02:51:11.761Z,12.59
2023-05-12T02:53:56.864Z,12.62
2023-05-12T02:56:41.708Z,12.69
2023-05-12T02:59:27.379Z,12.75
2023-05-12T03:02:12.661Z,12.71
2023-05-12T03:04:57.707Z,12.63
2023-05-12T03:07:42.673Z,12.76
2023-05-12T03:10:27.848Z,12.79
2023-05-12T03:13:12.709Z,12.75
2023-05-12T03:16:01.215Z,12.76
2023-05-12T03:18:46.344Z,12.69
2023-05-12T03:21:31.238Z,12.64
2023-05-12T03:24:16.396Z,12.75
2023-05-12T03:27:01.320Z,12.76
2023-05-12T03:29:46.562Z,12.62
2023-05-12T03:32:31.462Z,12.66
2023-05-12T03:35:16.490Z,12.71
2023-05-12T03:38:01.421Z,12.63
2023-05-12T03:40:52.289Z,12.61
2023-05-12T03:43:36.991Z,12.61
2023-05-12T03:46:22.701Z,12.61
2023-05-12T03:49:07.634Z,12.55
2023-05-12T03:51:52.658Z,12.52
2023-05-12T03:54:38.092Z,12.54
2023-05-12T03:57:23.246Z,12.49
2023-05-12T04:00:08.643Z,12.53
2023-05-12T04:02:53.803Z,12.52
2023-05-12T04:05:39.439Z,12.61
2023-05-12T04:08:24.427Z,12.58
2023-05-12T04:11:09.498Z,12.60
2023-05-12T04:13:55.040Z,12.53
2023-05-12T04:16:40.610Z,12.59
2023-05-12T04:19:25.842Z,12.63
2023-05-12T04:22:10.808Z,12.63
2023-05-12T04:24:55.914Z,12.59
2023-05-12T04:27:40.891Z,12.51
2023-05-12T04:30:25.902Z,12.36
2023-05-12T04:33:11.137Z,12.48
2023-05-12T04:35:56.988Z,12.58
2023-05-12T04:38:41.829Z,12.48
2023-05-12T04:41:27.001Z,12.54
2023-05-12T04:44:11.816Z,12.50
2023-05-12T04:46:57.909Z,12.53
2023-05-12T04:49:42.680Z,12.48
2023-05-12T04:52:27.696Z,12.59
2023-05-12T04:55:12.581Z,12.42
2023-05-12T04:57:57.721Z,12.47
2023-05-12T05:00:43.073Z,12.32
2023-05-12T05:03:28.329Z,12.48
2023-05-12T05:06:13.427Z,12.34
2023-05-12T05:08:58.567Z,12.26
2023-05-12T05:11:43.426Z,12.54
2023-05-12T05:14:28.548Z,12.44
2023-05-12T05:17:13.459Z,12.38
2023-05-12T05:19:59.593Z,12.37
2023-05-12T05:22:44.955Z,12.53
2023-05-12T05:25:29.805Z,12.35
2023-05-12T05:28:14.934Z,12.43
2023-05-12T05:30:59.841Z,12.43
2023-05-12T05:33:44.869Z,12.40
2023-05-12T05:36:31.476Z,12.25
2023-05-12T05:39:17.067Z,12.38
2023-05-12T05:42:01.838Z,12.47
2023-05-12T05:44:46.705Z,12.40
2023-05-12T05:47:32.187Z,12.46
2023-05-12T05:50:17.199Z,12.44
2023-05-12T05:53:01.983Z,12.44
2023-05-12T05:55:48.646Z,12.30
2023-05-12T05:58:33.621Z,12.39
2023-05-12T06:01:18.782Z,12.36
2023-05-12T06:04:03.889Z,12.30
2023-05-12T06:06:48.980Z,12.26
2023-05-12T06:09:33.904Z,12.31
2023-05-12T06:12:19.001Z,12.28
2023-05-12T06:15:04.066Z,12.34
2023-05-12T06:17:48.956Z,12.39
2023-05-12T06:20:33.678Z,12.30
2023-05-12T06:23:18.987Z,12.33
2023-05-12T06:26:04.059Z,12.33
2023-05-12T06:28:49.189Z,12.30
2023-05-12T06:31:34.580Z,12.28
2023-05-12T06:34:19.419Z,12.44
2023-05-12T06:37:04.334Z,12.46
2023-05-12T06:39:49.471Z,12.47
2023-05-12T06:42:34.350Z,12.42
2023-05-12T06:45:19.843Z,12.66
2023-05-12T06:48:05.955Z,12.80
2023-05-12T06:50:50.925Z,12.76
2023-05-12T06:53:38.458Z,12.70
2023-05-12T06:56:23.688Z,12.76
2023-05-12T06:59:08.785Z,12.84
2023-05-12T07:01:53.929Z,12.94
2023-05-12T07:04:39.398Z,12.79
2023-05-12T07:07:24.573Z,13.04
2023-05-12T07:10:10.230Z,13.01
2023-05-12T07:12:55.419Z,13.20
2023-05-12T07:15:40.522Z,13.37
2023-05-12T07:18:25.536Z,13.66
2023-05-12T07:21:10.672Z,13.95
2023-05-12T07:23:55.787Z,14.17
2023-05-12T07:26:40.900Z,14.18
2023-05-12T07:29:25.673Z,14.06
2023-05-12T07:32:10.423Z,14.24
2023-05-12T07:34:55.574Z,14.23
2023-05-12T07:37:41.280Z,14.17
2023-05-12T07:40:26.581Z,14.39
2023-05-12T07:43:12.001Z,14.70
2023-05-12T07:45:59.146Z,14.79
2023-05-12T07:48:44.125Z,14.57
2023-05-12T07:51:29.211Z,14.88
2023-05-12T07:54:14.242Z,14.48
2023-05-12T07:56:59.340Z,14.15
2023-05-12T07:59:44.221Z,14.50
2023-05-12T08:02:29.401Z,14.47
2023-05-12T08:05:14.933Z,14.20
2023-05-12T08:07:59.732Z,14.63
2023-05-12T08:10:44.560Z,14.58
2023-05-12T08:13:29.677Z,15.13
2023-05-12T08:16:14.489Z,15.00
2023-05-12T08:18:59.742Z,15.88
2023-05-12T08:21:45.587Z,17.08
2023-05-12T08:24:30.611Z,17.40
2023-05-12T08:27:15.531Z,16.42
2023-05-12T08:30:00.687Z,15.90
2023-05-12T08:32:45.763Z,15.35
2023-05-12T08:35:30.654Z,15.26
2023-05-12T08:38:16.268Z,15.43
2023-05-12T08:41:22.035Z,14.99
2023-05-12T08:44:08.220Z,15.31
2023-05-12T08:46:54.854Z,15.57
2023-05-12T08:49:42.471Z,16.35
2023-05-12T08:52:30.030Z,17.30
2023-05-12T08:55:15.459Z,16.99
2023-05-12T08:58:02.866Z,17.78
2023-05-12T09:00:50.477Z,18.18
2023-05-12T09:03:35.483Z,18.01
2023-05-12T09:06:20.464Z,16.96
2023-05-12T09:09:05.621Z,16.76
2023-05-12T09:11:56.232Z,16.83
2023-05-12T09:14:44.672Z,16.64
2023-05-12T09:17:29.631Z,17.13
2023-05-12T09:20:27.839Z,16.86
2023-05-12T09:23:21.034Z,15.92
2023-05-12T09:26:06.456Z,15.77
2023-05-12T09:28:53.724Z,15.73
2023-05-12T09:31:38.868Z,15.90
2023-05-12T09:34:41.035Z,16.02
2023-05-12T09:37:31.707Z,16.32
2023-05-12T09:40:16.727Z,16.70
2023-05-12T09:43:03.247Z,16.76
2023-05-12T09:45:50.143Z,17.34
2023-05-12T09:48:35.943Z,17.28
2023-05-12T09:51:21.316Z,19.32
2023-05-12T09:54:07.587Z,19.04
2023-05-12T09:56:58.097Z,18.09
2023-05-12T09:59:44.458Z,17.83
2023-05-12T10:02:31.078Z,17.66
2023-05-12T10:05:20.658Z,18.13
2023-05-12T10:08:07.536Z,17.64
2023-05-12T10:10:53.753Z,17.71
2023-05-12T10:13:39.617Z,17.89
2023-05-12T10:16:26.353Z,17.99
2023-05-12T10:19:13.204Z,18.16
2023-05-12T10:21:58.446Z,17.74
2023-05-12T10:24:45.538Z,17.54
2023-05-12T10:27:33.060Z,17.57
2023-05-12T10:30:18.278Z,17.73
2023-05-12T10:33:03.205Z,17.89
2023-05-12T10:35:49.661Z,17.57
2023-05-12T10:38:37.099Z,17.84
2023-05-12T10:41:33.010Z,18.59
2023-05-12T10:44:27.027Z,18.48
2023-05-12T10:47:16.516Z,20.15
2023-05-12T10:50:01.401Z,21.77
2023-05-12T10:52:54.096Z,19.12
2023-05-12T10:55:45.464Z,19.09
2023-05-12T10:58:30.781Z,18.41
2023-05-12T11:01:25.168Z,19.28
2023-05-12T11:04:19.351Z,17.97
2023-05-12T11:07:07.907Z,18.45
2023-05-12T11:09:59.085Z,18.82
2023-05-12T11:12:45.934Z,18.80
2023-05-12T11:15:31.373Z,18.68
2023-05-12T11:18:23.275Z,18.81
2023-05-12T11:21:12.065Z,18.69
2023-05-12T11:23:58.157Z,18.29
2023-05-12T11:26:43.281Z,18.39
2023-05-12T11:29:28.144Z,18.12
2023-05-12T11:32:15.526Z,18.38
2023-05-12T11:35:15.070Z,18.44
2023-05-12T11:37:59.829Z,18.57
2023-05-12T11:40:45.446Z,18.54
2023-05-12T11:43:30.383Z,18.40
2023-05-12T11:46:28.620Z,19.32
2023-05-12T11:49:13.302Z,19.09
2023-05-12T11:52:02.373Z,19.04
2023-05-12T11:54:57.507Z,19.02
2023-05-12T11:57:42.463Z,18.64
2023-05-12T12:00:32.822Z,18.93
2023-05-12T12:03:18.078Z,18.95
2023-05-12T12:06:06.556Z,19.13
2023-05-12T12:08:56.094Z,18.96
2023-05-12T12:11:40.729Z,18.71
2023-05-12T12:14:25.695Z,18.70
2023-05-12T12:17:10.783Z,18.73
2023-05-12T12:19:56.224Z,18.74
2023-05-12T12:22:41.044Z,18.63
2023-05-12T12:25:26.258Z,18.52
2023-05-12T12:28:10.960Z,18.62
2023-05-12T12:30:56.099Z,18.69
2023-05-12T12:33:40.907Z,18.85
2023-05-12T12:36:26.199Z,18.84
2023-05-12T12:39:10.879Z,18.93
2023-05-12T12:41:55.883Z,18.90
2023-05-12T12:44:40.945Z,18.88
2023-05-12T12:47:26.278Z,19.06
2023-05-12T12:50:11.248Z,18.77
2023-05-12T12:52:56.143Z,18.68
2023-05-12T12:55:40.981Z,19.08
2023-05-12T12:58:25.833Z,18.91
2023-05-12T13:01:11.052Z,18.71
2023-05-12T13:03:56.024Z,18.95
2023-05-12T13:06:41.021Z,19.21
2023-05-12T13:09:26.288Z,19.26
2023-05-12T13:12:11.164Z,19.59
2023-05-12T13:14:56.794Z,19.80
2023-05-12T13:17:41.891Z,19.79
2023-05-12T13:20:26.864Z,19.47
2023-05-12T13:23:11.901Z,19.57
2023-05-12T13:25:58.636Z,19.64
2023-05-12T13:28:43.509Z,19.38
2023-05-12T13:31:28.787Z,19.43
2023-05-12T13:34:14.570Z,19.62
2023-05-12T13:36:59.435Z,19.78
2023-05-12T13:39:44.557Z,20.05
2023-05-12T13:42:29.332Z,19.42
2023-05-12T13:45:14.514Z,19.48
2023-05-12T13:47:59.509Z,19.61
2023-05-12T13:50:44.507Z,19.79
2023-05-12T13:53:29.261Z,19.84
2023-05-12T13:56:16.147Z,19.97
2023-05-12T13:59:01.136Z,19.88
2023-05-12T14:01:46.799Z,19.61
2023-05-12T14:04:32.164Z,19.73
2023-05-12T14:07:18.493Z,19.78
2023-05-12T14:10:03.481Z,19.87
2023-05-12T14:12:48.637Z,19.64
2023-05-12T14:15:47.320Z,19.57
2023-05-12T14:18:33.494Z,19.66
2023-05-12T14:21:18.350Z,19.59
2023-05-12T14:24:03.778Z,19.85
2023-05-12T14:26:49.160Z,19.66
2023-05-12T14:29:34.198Z,19.59
2023-05-12T14:32:19.427Z,19.48
2023-05-12T14:35:04.847Z,19.53
2023-05-12T14:37:51.132Z,19.38
2023-05-12T14:40:37.701Z,19.44
2023-05-12T14:43:23.323Z,19.39
2023-05-12T14:46:08.708Z,19.54
2023-05-12T14:48:53.700Z,19.82
2023-05-12T14:51:38.598Z,19.70
2023-05-12T14:54:25.951Z,19.63
2023-05-12T14:57:11.890Z,19.70
2023-05-12T14:59:58.620Z,19.54
2023-05-12T15:02:44.794Z,19.39
2023-05-12T15:05:47.357Z,19.28
2023-05-12T15:08:34.660Z,19.19
2023-05-12T15:11:19.673Z,19.10
2023-05-12T15:14:04.911Z,19.12
2023-05-12T15:16:49.666Z,19.10
2023-05-12T15:19:35.119Z,19.12
2023-05-12T15:22:20.415Z,19.16
2023-05-12T15:25:06.214Z,19.38
2023-05-12T15:27:51.677Z,19.55
2023-05-12T15:30:36.948Z,19.14
2023-05-12T15:33:22.458Z,19.09
2023-05-12T15:36:11.443Z,19.14
2023-05-12T15:38:56.494Z,19.02
2023-05-12T15:41:42.518Z,18.84
2023-05-12T15:44:27.704Z,18.94
2023-05-12T15:47:12.744Z,18.76
2023-05-12T15:49:57.510Z,18.72
2023-05-12T15:52:42.370Z,18.75
2023-05-12T15:55:27.792Z,18.84
2023-05-12T15:58:12.734Z,18.77
2023-05-12T16:00:57.706Z,18.76
2023-05-12T16:03:42.710Z,18.71
2023-05-12T16:06:27.743Z,18.70
2023-05-12T16:09:13.550Z,18.56
2023-05-12T16:11:58.811Z,18.58
2023-05-12T16:14:44.037Z,18.53
2023-05-12T16:17:29.614Z,18.54
2023-05-12T16:20:15.294Z,18.66
2023-05-12T16:23:00.494Z,18.67
2023-05-12T16:25:45.738Z,18.68
2023-05-12T16:28:32.973Z,18.65
2023-05-12T16:31:19.617Z,18.84
2023-05-12T16:34:04.555Z,18.90
2023-05-12T16:36:49.552Z,18.82
2023-05-12T16:39:35.756Z,18.58
2023-05-12T16:42:20.900Z,18.72
2023-05-12T16:45:06.641Z,18.81
2023-05-12T16:47:51.562Z,18.75
2023-05-12T16:50:36.830Z,18.78
2023-05-12T16:53:21.936Z,18.76
2023-05-12T16:56:07.189Z,18.75
2023-05-12T16:58:51.915Z,18.65
2023-05-12T17:01:38.205Z,18.61
2023-05-12T17:04:23.128Z,18.50
2023-05-12T17:07:08.102Z,18.51
2023-05-12T17:09:52.981Z,18.42
2023-05-12T17:12:38.300Z,18.43
2023-05-12T17:15:23.680Z,18.44
2023-05-12T17:18:08.807Z,18.52
2023-05-12T17:20:53.866Z,18.53
2023-05-12T17:23:39.242Z,18.48
2023-05-12T17:26:27.459Z,18.38
2023-05-12T17:29:12.645Z,18.26
2023-05-12T17:31:57.407Z,18.21
2023-05-12T17:34:42.563Z,18.10
2023-05-12T17:37:30.025Z,18.03
2023-05-12T17:40:16.613Z,18.00
2023-05-12T17:43:01.838Z,17.92
2023-05-12T17:45:47.602Z,17.82
2023-05-12T17:48:33.080Z,17.68
2023-05-12T17:51:18.384Z,17.31
2023-05-12T17:54:03.849Z,17.34
2023-05-12T17:56:48.646Z,17.64
2023-05-12T17:59:34.110Z,17.62
2023-05-12T18:02:19.303Z,17.53
2023-05-12T18:05:05.542Z,17.40
2023-05-12T18:07:50.392Z,17.38
2023-05-12T18:10:35.883Z,17.32
2023-05-12T18:13:20.820Z,17.18
2023-05-12T18:16:15.378Z,17.09
2023-05-12T18:19:06.512Z,17.10
2023-05-12T18:21:54.105Z,17.05
2023-05-12T18:24:39.130Z,16.89
2023-05-12T18:27:23.855Z,16.71
2023-05-12T18:30:09.679Z,16.58
2023-05-12T18:32:55.138Z,16.59
2023-05-12T18:35:40.608Z,16.42
2023-05-12T18:38:25.492Z,16.30
2023-05-12T18:41:11.709Z,16.27
2023-05-12T18:43:56.558Z,16.24
2023-05-12T18:46:41.278Z,16.25
2023-05-12T18:49:26.173Z,16.18
2023-05-12T18:52:11.269Z,16.34
2023-05-12T18:54:56.041Z,16.44
2023-05-12T18:57:41.094Z,16.51
2023-05-12T19:00:27.584Z,16.42
2023-05-12T19:03:12.766Z,16.34
2023-05-12T19:05:58.574Z,16.26
2023-05-12T19:08:43.482Z,16.29
2023-05-12T19:11:29.633Z,16.11
2023-05-12T19:14:16.571Z,16.11
2023-05-12T19:17:01.814Z,15.90
2023-05-12T19:19:46.732Z,15.90
2023-05-12T19:22:31.966Z,15.82
2023-05-12T19:25:20.044Z,15.83
2023-05-12T19:28:05.853Z,15.80
2023-05-12T19:30:51.120Z,15.77
2023-05-12T19:33:35.986Z,15.77
2023-05-12T19:36:20.961Z,15.66
2023-05-12T19:39:06.105Z,15.60
2023-05-12T19:41:51.484Z,15.62
2023-05-12T19:44:36.635Z,15.62
2023-05-12T19:47:26.226Z,15.59
2023-05-12T19:50:11.265Z,15.56
2023-05-12T19:52:56.598Z,15.47
2023-05-12T19:55:41.408Z,15.43
2023-05-12T19:58:26.793Z,15.35
2023-05-12T20:01:12.299Z,15.38
2023-05-12T20:03:57.270Z,15.29
2023-05-12T20:06:42.641Z,15.29
2023-05-12T20:09:27.638Z,15.31
2023-05-12T20:12:12.720Z,15.32
2023-05-12T20:14:57.346Z,15.13
2023-05-12T20:17:42.511Z,15.17
2023-05-12T20:20:27.407Z,15.07
2023-05-12T20:23:12.563Z,15.02
2023-05-12T20:25:57.680Z,14.96
2023-05-12T20:28:42.705Z,14.92
2023-05-12T20:31:27.824Z,14.98
2023-05-12T20:34:12.846Z,14.86
2023-05-12T20:36:57.690Z,14.79
2023-05-12T20:39:42.713Z,14.79
2023-05-12T20:42:27.619Z,14.79
2023-05-12T20:45:13.699Z,14.82
2023-05-12T20:47:58.334Z,14.76
2023-05-12T20:50:43.672Z,14.81
2023-05-12T20:53:28.875Z,14.80
2023-05-12T20:56:14.029Z,14.76
2023-05-12T20:58:59.164Z,14.75
2023-05-12T21:01:44.268Z,14.75
2023-05-12T21:04:28.928Z,14.71
2023-05-12T21:07:13.816Z,14.71
2023-05-12T21:10:03.449Z,14.78
2023-05-12T21:12:48.322Z,14.75
2023-05-12T21:15:33.436Z,14.70
2023-05-12T21:18:18.509Z,14.71
2023-05-12T21:21:05.090Z,14.72
2023-05-12T21:23:50.202Z,14.68
2023-05-12T21:26:35.285Z,14.66
2023-05-12T21:29:20.386Z,14.54
2023-05-12T21:32:05.978Z,14.49
2023-05-12T21:34:51.248Z,14.44
2023-05-12T21:37:36.418Z,14.44
2023-05-12T21:40:21.627Z,14.46
2023-05-12T21:43:06.832Z,14.47
2023-05-12T21:45:52.366Z,14.44
2023-05-12T21:48:37.182Z,14.39
2023-05-12T21:51:22.088Z,14.32
2023-05-12T21:54:07.372Z,14.24
2023-05-12T21:56:52.447Z,14.19
2023-05-12T21:59:37.492Z,14.21
2023-05-12T22:02:22.297Z,14.22
2023-05-12T22:05:07.837Z,14.22
2023-05-12T22:07:52.818Z,14.17
2023-05-12T22:10:38.062Z,14.18
2023-05-12T22:13:22.741Z,14.08
2023-05-12T22:16:08.075Z,14.12
2023-05-12T22:18:53.014Z,14.11
2023-05-12T22:21:38.271Z,14.11
2023-05-12T22:24:23.122Z,14.10
2023-05-12T22:27:08.255Z,14.06
2023-05-12T22:29:54.921Z,14.04
2023-05-12T22:32:40.039Z,14.01
2023-05-12T22:35:24.875Z,13.99
2023-05-12T22:38:09.768Z,13.96
2023-05-12T22:40:54.649Z,13.92
2023-05-12T22:43:39.415Z,13.91
2023-05-12T22:46:24.779Z,13.94
2023-05-12T22:49:09.797Z,13.88
2023-05-12T22:51:54.708Z,13.85
2023-05-12T22:54:39.885Z,13.81
2023-05-12T22:57:25.406Z,13.73
2023-05-12T23:00:11.414Z,13.65
2023-05-12T23:02:56.343Z,13.59
2023-05-12T23:05:41.167Z,13.53
2023-05-12T23:08:26.058Z,13.51
2023-05-12T23:11:12.690Z,13.50
2023-05-12T23:13:58.100Z,13.47
2023-05-12T23:16:42.845Z,13.47
2023-05-12T23:19:27.917Z,13.44
2023-05-12T23:22:13.066Z,13.33
2023-05-12T23:24:58.222Z,13.27
2023-05-12T23:27:43.304Z,13.26
2023-05-12T23:30:31.787Z,13.27
2023-05-12T23:33:17.046Z,13.25
2023-05-12T23:36:02.576Z,13.18
2023-05-12T23:38:50.635Z,13.20
2023-05-12T23:41:36.360Z,13.25
2023-05-12T23:44:21.094Z,13.25
2023-05-12T23:47:06.592Z,13.31
2023-05-12T23:49:51.784Z,13.18
2023-05-12T23:52:36.822Z,13.21
2023-05-12T23:55:22.216Z,13.22
2023-05-12T23:58:09.255Z,13.15
